createdAt,value
2022-12-31T00:01:49.553Z,97.73
2022-12-31T00:05:53.673Z,97.65
2022-12-31T00:09:57.362Z,97.52
2022-12-31T00:14:00.695Z,97.40
2022-12-31T00:18:05.172Z,98.02
2022-12-31T00:22:08.125Z,98.11
2022-12-31T00:26:12.638Z,97.88
2022-12-31T00:30:16.150Z,98.00
2022-12-31T00:34:20.877Z,97.68
2022-12-31T00:38:25.084Z,97.72
2022-12-31T00:42:28.662Z,98.00
2022-12-31T00:46:33.148Z,97.18
2022-12-31T00:50:37.581Z,97.41
2022-12-31T00:54:40.696Z,96.74
2022-12-31T00:58:44.739Z,97.44
2022-12-31T01:02:48.523Z,97.07
2022-12-31T01:06:53.572Z,96.37
2022-12-31T01:11:23.293Z,97.02
2022-12-31T01:15:26.825Z,95.82
2022-12-31T01:19:30.553Z,96.58
2022-12-31T01:23:35.822Z,96.12
2022-12-31T01:27:42.825Z,96.67
2022-12-31T01:31:46.164Z,96.13
2022-12-31T01:35:49.389Z,95.92
2022-12-31T01:39:55.092Z,95.68
2022-12-31T01:44:03.083Z,95.91
2022-12-31T01:48:06.691Z,95.32
2022-12-31T01:52:17.983Z,95.95
2022-12-31T01:56:23.198Z,96.40
2022-12-31T02:00:27.279Z,96.12
2022-12-31T02:04:32.869Z,96.27
2022-12-31T02:08:41.922Z,96.70
2022-12-31T02:12:47.241Z,96.13
2022-12-31T02:16:56.139Z,97.23
2022-12-31T02:21:19.925Z,97.00
2022-12-31T02:25:38.053Z,96.71
2022-12-31T02:29:59.209Z,96.34
2022-12-31T02:34:06.656Z,96.61
2022-12-31T02:38:13.257Z,96.62
2022-12-31T02:42:21.326Z,96.27
2022-12-31T02:46:31.327Z,96.57
2022-12-31T02:50:42.693Z,96.02
2022-12-31T02:54:52.569Z,95.66
2022-12-31T02:59:15.619Z,95.61
2022-12-31T03:03:20.265Z,95.81
2022-12-31T03:07:26.471Z,95.94
2022-12-31T03:11:49.076Z,95.46
2022-12-31T03:15:52.249Z,94.94
2022-12-31T03:20:12.783Z,95.50
2022-12-31T03:24:34.638Z,95.10
2022-12-31T03:28:38.521Z,95.51
2022-12-31T03:32:41.473Z,94.80
2022-12-31T03:36:47.567Z,93.30
2022-12-31T03:40:54.008Z,92.91
2022-12-31T03:45:03.441Z,93.73
2022-12-31T03:49:10.603Z,92.78
2022-12-31T03:53:13.826Z,93.01
2022-12-31T03:57:34.781Z,93.44
2022-12-31T04:01:41.028Z,93.41
2022-12-31T04:05:44.350Z,93.07
2022-12-31T04:09:48.113Z,92.99
2022-12-31T04:14:01.112Z,93.08
2022-12-31T04:18:05.670Z,92.96
2022-12-31T04:22:17.612Z,91.55
2022-12-31T04:26:20.976Z,92.37
2022-12-31T04:30:26.114Z,91.91
2022-12-31T04:34:30.037Z,91.38
2022-12-31T04:38:36.099Z,90.87
2022-12-31T04:42:44.677Z,91.47
2022-12-31T04:46:49.329Z,91.42
2022-12-31T04:50:53.383Z,90.41
2022-12-31T04:54:56.657Z,91.26
2022-12-31T04:59:00.336Z,91.25
2022-12-31T05:03:09.071Z,90.67
2022-12-31T05:07:12.556Z,89.67
2022-12-31T05:11:15.884Z,89.57
2022-12-31T05:15:19.074Z,91.21
2022-12-31T05:19:26.380Z,89.72
2022-12-31T05:23:30.156Z,90.88
2022-12-31T05:27:34.003Z,88.76
2022-12-31T05:31:36.987Z,89.32
2022-12-31T05:35:41.297Z,88.47
2022-12-31T05:39:45.209Z,89.44
2022-12-31T05:43:48.651Z,88.35
2022-12-31T05:47:55.760Z,88.59
2022-12-31T05:52:01.310Z,87.39
2022-12-31T05:56:04.777Z,88.04
2022-12-31T06:00:09.068Z,87.97
2022-12-31T06:04:12.336Z,87.26
2022-12-31T06:08:17.140Z,87.73
2022-12-31T06:12:20.201Z,88.15
2022-12-31T06:16:26.803Z,87.63
2022-12-31T06:20:33.845Z,88.15
2022-12-31T06:24:37.987Z,87.28
2022-12-31T06:28:42.131Z,87.16
2022-12-31T06:32:45.338Z,87.43
2022-12-31T06:36:48.597Z,87.53
2022-12-31T06:40:53.035Z,87.56
2022-12-31T06:44:55.806Z,87.67
2022-12-31T06:48:58.647Z,87.58
2022-12-31T06:53:01.514Z,86.66
2022-12-31T06:57:06.588Z,87.35
2022-12-31T07:01:28.949Z,87.29
2022-12-31T07:05:41.259Z,87.12
2022-12-31T07:09:48.878Z,85.95
2022-12-31T07:14:01.286Z,87.38
2022-12-31T07:18:08.687Z,85.46
2022-12-31T07:22:14.970Z,87.11
2022-12-31T07:26:24.790Z,86.31
2022-12-31T07:30:36.757Z,85.87
2022-12-31T07:34:43.508Z,87.15
2022-12-31T07:38:53.005Z,87.10
2022-12-31T07:43:06.045Z,86.95
2022-12-31T07:47:21.326Z,86.58
2022-12-31T07:51:24.875Z,86.08
2022-12-31T07:55:27.535Z,85.76
2022-12-31T07:59:42.225Z,84.53
2022-12-31T08:03:54.401Z,85.21
2022-12-31T08:08:00.733Z,86.35
2022-12-31T08:12:04.478Z,84.35
2022-12-31T08:16:11.914Z,85.55
2022-12-31T08:20:18.762Z,85.55
2022-12-31T08:24:30.041Z,86.25
2022-12-31T08:28:47.082Z,85.97
2022-12-31T08:32:56.221Z,85.88
2022-12-31T08:37:03.233Z,85.43
2022-12-31T08:41:12.875Z,85.79
2022-12-31T08:45:16.942Z,84.62
2022-12-31T08:49:20.122Z,85.22
2022-12-31T08:53:25.097Z,84.49
2022-12-31T08:57:33.814Z,83.03
2022-12-31T09:01:51.171Z,84.18
2022-12-31T09:06:00.159Z,84.64
2022-12-31T09:10:16.329Z,83.65
2022-12-31T09:14:27.129Z,83.03
2022-12-31T09:18:33.276Z,83.48
2022-12-31T09:22:36.915Z,83.81
2022-12-31T09:26:44.068Z,82.37
2022-12-31T09:30:52.680Z,83.22
2022-12-31T09:34:57.887Z,82.56
2022-12-31T09:39:05.557Z,82.25
2022-12-31T09:43:30.667Z,82.50
2022-12-31T09:48:01.027Z,81.72
2022-12-31T09:52:12.694Z,81.29
2022-12-31T09:56:19.102Z,81.79
2022-12-31T10:00:26.830Z,80.95
2022-12-31T10:04:44.778Z,79.47
2022-12-31T10:09:17.076Z,81.25
2022-12-31T10:13:34.016Z,81.06
2022-12-31T10:17:53.844Z,82.10
2022-12-31T10:22:06.364Z,81.51
2022-12-31T10:26:28.489Z,82.10
2022-12-31T10:30:35.068Z,82.30
2022-12-31T10:34:59.421Z,80.60
2022-12-31T10:39:13.532Z,81.89
2022-12-31T10:43:24.000Z,80.20
2022-12-31T10:47:54.660Z,80.98
2022-12-31T10:52:26.110Z,80.01
2022-12-31T10:56:50.223Z,80.26
2022-12-31T11:00:59.832Z,80.64
2022-12-31T11:05:13.408Z,80.09
2022-12-31T11:09:48.824Z,78.53
2022-12-31T11:14:25.986Z,77.18
2022-12-31T11:18:32.564Z,76.41
2022-12-31T11:22:48.377Z,77.62
2022-12-31T11:26:54.306Z,77.36
2022-12-31T11:31:10.614Z,77.10
2022-12-31T11:35:27.104Z,77.42
2022-12-31T11:39:48.657Z,75.73
2022-12-31T11:43:59.294Z,75.57
2022-12-31T11:52:56.259Z,74.77
2022-12-31T11:57:03.618Z,76.50
2022-12-31T12:01:11.013Z,74.52
2022-12-31T12:05:17.226Z,76.49
2022-12-31T12:09:26.604Z,74.68
2022-12-31T12:13:30.677Z,74.08
2022-12-31T12:17:34.628Z,75.51
2022-12-31T12:21:46.318Z,74.79
2022-12-31T12:25:49.271Z,73.53
2022-12-31T12:29:52.009Z,76.10
2022-12-31T12:33:54.824Z,75.23
2022-12-31T12:38:04.217Z,76.79
2022-12-31T12:42:11.153Z,75.81
2022-12-31T12:46:20.809Z,75.81
2022-12-31T12:50:25.743Z,74.98
2022-12-31T12:54:39.736Z,74.49
2022-12-31T12:58:52.343Z,76.55
2022-12-31T13:03:07.162Z,75.85
2022-12-31T13:07:20.382Z,77.04
2022-12-31T13:11:32.461Z,76.77
2022-12-31T13:15:41.011Z,76.57
2022-12-31T13:19:47.996Z,76.99
2022-12-31T13:23:53.566Z,76.83
2022-12-31T13:28:03.562Z,74.80
2022-12-31T13:32:09.113Z,75.47
2022-12-31T13:36:16.472Z,74.59
2022-12-31T13:40:23.370Z,76.64
2022-12-31T13:44:31.724Z,75.12
2022-12-31T13:48:37.880Z,76.76
2022-12-31T13:52:44.234Z,75.41
2022-12-31T13:56:48.409Z,76.83
2022-12-31T14:00:57.463Z,75.50
2022-12-31T14:05:04.664Z,74.69
2022-12-31T14:09:08.167Z,75.77
2022-12-31T14:13:34.940Z,76.26
2022-12-31T14:17:46.941Z,75.48
2022-12-31T14:21:55.886Z,76.01
2022-12-31T14:26:00.996Z,74.33
2022-12-31T14:30:06.666Z,76.40
2022-12-31T14:34:15.457Z,76.06
2022-12-31T14:38:25.206Z,76.83
2022-12-31T14:42:29.911Z,77.39
2022-12-31T14:46:37.520Z,77.54
2022-12-31T14:50:41.889Z,77.82
2022-12-31T14:54:44.676Z,77.49
2022-12-31T14:58:56.149Z,78.14
2022-12-31T15:03:00.495Z,79.47
2022-12-31T15:07:10.807Z,81.66
2022-12-31T15:11:24.133Z,80.78
2022-12-31T15:15:53.199Z,80.24
2022-12-31T15:20:31.903Z,79.47
2022-12-31T15:24:36.076Z,81.60
2022-12-31T15:28:39.933Z,82.17
2022-12-31T15:32:44.360Z,82.33
2022-12-31T15:36:53.426Z,83.60
2022-12-31T15:40:57.656Z,82.80
2022-12-31T15:45:03.553Z,81.92
2022-12-31T15:49:15.581Z,85.35
2022-12-31T15:53:28.030Z,86.15
2022-12-31T15:57:35.586Z,86.48
2022-12-31T16:01:41.516Z,87.55
2022-12-31T16:05:44.656Z,88.54
2022-12-31T16:09:51.904Z,89.12
2022-12-31T16:13:56.914Z,89.55
2022-12-31T16:18:01.789Z,89.43
2022-12-31T16:22:13.268Z,89.79
2022-12-31T16:26:16.645Z,90.28
2022-12-31T16:30:24.443Z,90.42
2022-12-31T16:34:29.355Z,90.16
2022-12-31T16:38:33.771Z,90.39
2022-12-31T16:42:44.123Z,90.99
2022-12-31T16:46:49.334Z,91.06
2022-12-31T16:50:54.821Z,90.77
2022-12-31T16:54:57.921Z,92.04
2022-12-31T16:59:02.772Z,92.75
2022-12-31T17:03:10.158Z,90.76
2022-12-31T17:07:31.959Z,91.58
2022-12-31T17:11:39.234Z,86.60
2022-12-31T17:15:44.157Z,81.56
2022-12-31T17:19:50.729Z,80.49
2022-12-31T17:23:56.067Z,79.19
2022-12-31T17:28:01.949Z,78.07
2022-12-31T17:32:06.760Z,77.98
2022-12-31T17:36:24.362Z,78.47
2022-12-31T17:40:50.513Z,78.36
2022-12-31T17:44:57.377Z,77.25
2022-12-31T17:49:03.437Z,78.08
2022-12-31T17:53:11.696Z,77.57
2022-12-31T17:57:24.251Z,78.11
2022-12-31T18:01:27.646Z,78.14
2022-12-31T18:05:30.760Z,78.48
2022-12-31T18:09:35.309Z,79.85
2022-12-31T18:13:38.564Z,77.78
2022-12-31T18:17:41.650Z,78.55
2022-12-31T18:21:45.254Z,79.11
2022-12-31T18:25:49.620Z,78.32
2022-12-31T18:29:52.508Z,78.47
2022-12-31T18:33:57.174Z,79.04
2022-12-31T18:38:00.489Z,78.27
2022-12-31T18:42:04.891Z,80.28
2022-12-31T18:46:09.911Z,80.33
2022-12-31T18:50:15.384Z,81.10
2022-12-31T18:54:18.397Z,81.36
2022-12-31T18:58:23.264Z,80.95
2022-12-31T19:02:26.016Z,82.71
2022-12-31T19:06:29.694Z,84.29
2022-12-31T19:10:32.920Z,85.15
2022-12-31T19:14:37.813Z,87.23
2022-12-31T19:18:41.100Z,83.68
2022-12-31T19:22:44.309Z,83.46
2022-12-31T19:26:48.635Z,85.65
2022-12-31T19:30:53.582Z,85.24
2022-12-31T19:34:56.420Z,84.64
2022-12-31T19:38:59.685Z,80.61
2022-12-31T19:43:02.488Z,80.45
2022-12-31T19:47:07.423Z,80.81
2022-12-31T19:51:12.487Z,78.75
2022-12-31T19:55:17.411Z,79.93
2022-12-31T19:59:20.111Z,79.85
2022-12-31T20:03:24.438Z,79.37
2022-12-31T20:07:27.484Z,79.12
2022-12-31T20:11:30.662Z,78.55
2022-12-31T20:15:34.339Z,78.52
2022-12-31T20:19:38.714Z,78.42
2022-12-31T20:23:42.056Z,78.73
2022-12-31T20:27:44.900Z,78.62
2022-12-31T20:31:47.647Z,79.12
2022-12-31T20:35:52.484Z,78.83
2022-12-31T20:39:55.734Z,78.91
2022-12-31T20:43:58.561Z,78.64
2022-12-31T20:48:01.735Z,79.62
2022-12-31T20:52:06.430Z,80.55
2022-12-31T20:56:10.472Z,82.01
2022-12-31T21:00:14.845Z,78.75
2022-12-31T21:04:18.220Z,77.93
2022-12-31T21:08:22.631Z,76.46
2022-12-31T21:12:43.046Z,77.88
2022-12-31T21:16:45.995Z,79.51
2022-12-31T21:20:49.143Z,78.48
2022-12-31T21:24:53.914Z,79.31
2022-12-31T21:28:57.185Z,81.53
2022-12-31T21:32:59.923Z,83.91
2022-12-31T21:37:02.675Z,83.01
2022-12-31T21:41:08.365Z,82.15
2022-12-31T21:45:12.273Z,80.92
2022-12-31T21:49:15.339Z,79.85
2022-12-31T21:53:23.742Z,81.38
2022-12-31T21:57:29.395Z,81.68
2022-12-31T22:01:50.026Z,83.20
2022-12-31T22:05:56.861Z,82.54
2022-12-31T22:09:59.798Z,82.43
2022-12-31T22:14:04.389Z,82.95
2022-12-31T22:18:07.146Z,83.57
2022-12-31T22:22:10.282Z,83.93
2022-12-31T22:26:15.706Z,83.09
2022-12-31T22:30:20.548Z,83.06
2022-12-31T22:34:23.336Z,82.59
2022-12-31T22:38:26.905Z,82.71
2022-12-31T22:42:29.861Z,82.45
2022-12-31T22:46:35.194Z,83.15
2022-12-31T22:50:38.567Z,83.63
2022-12-31T22:54:41.699Z,84.46
2022-12-31T22:58:44.789Z,84.21
2022-12-31T23:02:50.322Z,83.72
2022-12-31T23:06:53.260Z,85.08
2022-12-31T23:11:05.636Z,85.25
2022-12-31T23:15:28.804Z,84.79
2022-12-31T23:19:50.633Z,84.65
2022-12-31T23:23:54.566Z,84.56
2022-12-31T23:27:57.443Z,85.59
2022-12-31T23:32:01.456Z,86.33
2022-12-31T23:36:07.214Z,86.91
2022-12-31T23:40:15.750Z,87.90
2022-12-31T23:44:22.043Z,88.41
2022-12-31T23:48:24.759Z,90.09
2022-12-31T23:52:29.212Z,90.18
2022-12-31T23:56:32.347Z,90.59
